FACTSAWH

Guest
Details From FACT - Cape Town International
To SAWH - Ushuaia_intl_islas Malvinas
Flight Number -
Tags Generated
Created
Modified
Stats Distance 3,673 nm / 6,802 km
Max Altitude 0 ft / 0 m
Waypoints 3
Social Downloads 1
Likes 0
Share VATSIM

Download

Looking for another format? Having issues loading an existing format? Contact us
Advertisement - Login to hide

Notes

Generated

Route

FACT USU93 SAWH

ID Type Via Altitude Latitude Longitude Leg Dist Tot Dist Heading (true) Name
O FACT APT - 0 ft / 0 m -33.96149˚ 18.59772˚ - 0 nm - -
USU93 FIX - 0 ft / 0 m -54.89357˚ -67.94544˚ 3659 nm 3659 nm 221° / 289° -
O SAWH APT - 0 ft / 0 m -54.84420˚ -68.31752˚ 13 nm 3672 nm 283° / 283° -

Altitude Profile

Advertisement - Login to hide

Weather


0- 5 10 15 20 25 30 35+ Temperature / ° C

Clouds and Precipitation
Forecast for 2017-12-12 00:00 UTC. Updated 2 hours ago

Ground ~20,000 ft ~40,000 ft Winds

FACT

Details ICAO FACT (CPT)
Name Cape Town International
Region South Africa
Timezone Africa/Johannesburg (UTC+2.0)
Stats Elevation 151 ft / 46 m (AMSL)
Location -33.970501° 18.604405°
Runways 2
Magnetic Variation 25.342° W

METAR

FACT 120100Z 16015KT CAVOK 17/10 Q1014 NOSIG

Decode

TAF

TAF FACT 112200Z 1200/1306 17015KT 9999 SCT020 FM120200 18015KT 9999 BKN020 FM120900 17018KT 9999 FEW030 FM130000 18010KT 9999 FEW015 BKN025 TX24/1212Z TN13/1204Z

Decode

Departure Runways

ID Width Length Bearing (true) Bearing (mag) Surface Threshold Offset Overrun Length
01 200 ft / 61 m 10,527 ft / 3,209 m 345.27° 10.61° Asphalt 0 ft / 0 m 195 ft / 59 m
16 151 ft / 46 m 5,586 ft / 1,703 m 135.35° 160.69° Asphalt 300 ft / 91 m 0 ft / 0 m
19 200 ft / 61 m 10,527 ft / 3,209 m 165.27° 190.61° Asphalt 0 ft / 0 m 195 ft / 59 m
34 151 ft / 46 m 5,586 ft / 1,703 m 315.35° 340.69° Asphalt 300 ft / 91 m 0 ft / 0 m

SAWH

Details ICAO SAWH (USH)
Name Ushuaia_Intl_Islas Malvinas
Region Argentina
Timezone America/Argentina/Ushuaia (UTC-3.0)
Stats Elevation 91 ft / 28 m (AMSL)
Location -54.843310° -68.294897°
Runways 1
Magnetic Variation 12.407° E

METAR

SAWH 120100Z 25018KT 9999 FEW038 BKN040 06/03 Q0994

Decode

TAF

TAF SAWH 112300Z 1200/1224 25020G30KT 9999 SCT030 SCT040 TX14/1119Z TN03/1110Z BECMG 1212/1214 29015G25KT SCT030 BKN080

Decode

Destination Runways

ID Width Length Bearing (true) Bearing (mag) Surface Threshold Offset Overrun Length
07 148 ft / 45 m 9,531 ft / 2,905 m 86.11° 73.70° Concrete 591 ft / 180 m 295 ft / 90 m
25 148 ft / 45 m 9,531 ft / 2,905 m 266.08° 253.67° Concrete 899 ft / 274 m 98 ft / 30 m

Approach Navaids

Runway Type Ident Frequency Range Bearing (true) Bearing (mag) Slope Elevation
25 Localiser US 111.30 MHz 18 nm / 33 km 266.19° 253.78° - 54 ft / 16 m (AMSL)
25 Glidescope US 111.30 MHz 10 nm / 19 km 266.10° 253.69° 3.50° 91 ft / 28 m (AMSL)
25 DME US 111.30 MHz 18 nm / 33 km - - - 92 ft / 28 m (AMSL)

Popular Alternatives